Time;durP1;ratioP1;P1;durP2;ratioP2;P2;SDS_P1;SDS_P2;PMS_P1;PMS_P2;Temp;Humidity;BMP_temperature;BMP_pressure;BME280_temperature;BME280_humidity;BME280_pressure;Samples;Min_cycle;Max_cycle;Signal;HPM_P1;HPM_P2
2022/07/07 00:00:55;;;;;;;;;15.20;15.20;;;;;24.24;58.93;99514.78;5090559;28;8851;-75
2022/07/07 00:03:24;;;;;;;;;16.60;16.20;;;;;24.20;59.01;99518.56;5091393;28;8836;-74
2022/07/07 00:05:54;;;;;;;;;11.00;10.80;;;;;24.20;59.05;99518.56;5091708;28;8828;-74
2022/07/07 00:08:23;;;;;;;;;12.80;12.80;;;;;24.18;58.72;99512.44;5068492;28;8847;-75
2022/07/07 00:10:51;;;;;;;;;13.20;13.20;;;;;24.13;58.83;99513.56;5069161;28;8844;-76
2022/07/07 00:13:20;;;;;;;;;15.20;15.20;;;;;24.13;58.76;99512.72;5069007;28;8889;-75
2022/07/07 00:15:49;;;;;;;;;15.60;15.00;;;;;24.10;58.81;99507.56;5068760;28;8978;-73
2022/07/07 00:18:17;;;;;;;;;13.40;12.20;;;;;24.02;58.95;99515.97;5051894;28;8843;-75
2022/07/07 00:20:46;;;;;;;;;14.00;13.20;;;;;23.99;59.36;99507.31;5068472;28;8847;-74
2022/07/07 00:23:16;;;;;;;;;16.60;16.60;;;;;23.99;59.01;99512.63;5068364;28;8882;-74
2022/07/07 00:25:45;;;;;;;;;9.00;9.00;;;;;23.96;59.25;99510.16;5068284;28;8851;-74
2022/07/07 00:28:14;;;;;;;;;13.60;12.40;;;;;23.94;59.41;99508.44;5068581;28;8848;-75
2022/07/07 00:30:42;;;;;;;;;15.00;14.20;;;;;23.79;59.96;99506.63;5068338;28;8848;-75
2022/07/07 00:33:11;;;;;;;;;16.20;15.00;;;;;23.81;59.93;99506.56;5068468;28;8844;-74
2022/07/07 00:35:40;;;;;;;;;14.00;14.00;;;;;23.82;59.96;99500.25;5067889;28;8862;-74
2022/07/07 00:38:08;;;;;;;;;13.00;12.20;;;;;23.82;59.98;99500.25;5067943;28;8852;-74
2022/07/07 00:40:38;;;;;;;;;12.20;11.00;;;;;23.81;60.06;99495.91;5089324;28;8867;-74
2022/07/07 00:43:07;;;;;;;;;14.40;13.40;;;;;23.78;59.92;99494.25;5089798;28;8950;-74
2022/07/07 00:45:35;;;;;;;;;12.20;11.00;;;;;23.74;60.18;99495.34;5089335;28;8831;-76
2022/07/07 00:48:07;;;;;;;;;16.60;16.60;;;;;23.72;60.04;99498.09;5090817;28;8839;-75
2022/07/07 00:50:36;;;;;;;;;13.80;13.80;;;;;23.70;60.34;99489.31;5091010;28;8941;-76
2022/07/07 00:53:04;;;;;;;;;14.60;14.00;;;;;23.70;60.28;99491.13;5071951;28;8886;-74
2022/07/07 00:55:33;;;;;;;;;15.20;14.80;;;;;23.70;60.21;99491.13;5091087;28;8852;-75
2022/07/07 00:58:03;;;;;;;;;14.80;14.80;;;;;23.70;60.50;99493.78;5091067;28;8843;-75
2022/07/07 01:00:33;;;;;;;;;13.40;12.00;;;;;23.70;60.53;99491.13;5054491;28;8887;-75
2022/07/07 01:03:02;;;;;;;;;13.40;13.00;;;;;23.68;60.45;99491.22;5071413;28;8838;-75
2022/07/07 01:05:33;;;;;;;;;17.60;13.00;;;;;23.62;60.52;99488.03;5071135;28;8872;-74
2022/07/07 01:08:02;;;;;;;;;16.20;15.20;;;;;23.55;60.75;99480.41;5087214;28;8865;-74
2022/07/07 01:10:32;;;;;;;;;13.80;13.60;;;;;23.53;60.75;99486.75;5030748;28;8869;-75
2022/07/07 01:13:04;;;;;;;;;16.20;15.60;;;;;23.52;60.83;99485.88;5014734;28;8960;-74
2022/07/07 01:15:33;;;;;;;;;14.60;13.00;;;;;23.52;60.98;99488.53;5047536;28;8861;-75
2022/07/07 01:18:01;;;;;;;;;15.60;15.00;;;;;23.52;60.86;99487.69;5047318;28;8854;-75
2022/07/07 01:20:30;;;;;;;;;14.40;13.60;;;;;23.52;61.22;99487.69;5047409;28;8838;-75
2022/07/07 01:23:00;;;;;;;;;16.00;15.60;;;;;23.53;61.15;99484.06;5047196;28;8865;-75
2022/07/07 01:25:29;;;;;;;;;14.20;13.40;;;;;23.50;61.23;99484.25;5047196;28;8846;-74
2022/07/07 01:27:58;;;;;;;;;14.60;14.60;;;;;23.46;61.59;99485.34;5014446;28;8934;-75
2022/07/07 01:30:27;;;;;;;;;12.60;12.00;;;;;23.47;61.71;99479.09;5030908;28;8846;-75
2022/07/07 01:32:55;;;;;;;;;13.00;12.60;;;;;23.41;61.57;99472.31;5066909;28;8864;-75
2022/07/07 01:35:24;;;;;;;;;12.40;12.40;;;;;23.37;61.69;99469.91;5067339;28;8859;-75
2022/07/07 01:37:52;;;;;;;;;15.20;14.20;;;;;23.33;61.91;99475.38;5072118;28;8970;-74
2022/07/07 01:40:22;;;;;;;;;14.20;13.40;;;;;23.33;61.96;99470.06;5071715;28;8868;-75
2022/07/07 01:42:51;;;;;;;;;11.80;11.00;;;;;23.33;61.72;99470.06;5088882;28;8971;-75
2022/07/07 01:45:20;;;;;;;;;13.80;12.40;;;;;23.32;61.47;99473.66;5089668;28;8848;-73
2022/07/07 01:47:48;;;;;;;;;11.60;11.60;;;;;23.32;61.39;99476.31;5089386;28;8859;-74
2022/07/07 01:50:17;;;;;;;;;12.00;12.00;;;;;23.30;61.64;99478.22;5089509;28;8862;-73
2022/07/07 01:52:46;;;;;;;;;13.60;13.00;;;;;23.31;61.28;99471.09;5087983;28;8986;-75
2022/07/07 01:55:14;;;;;;;;;14.60;13.80;;;;;23.30;61.47;99469.38;5089585;28;8859;-75
2022/07/07 01:57:45;;;;;;;;;13.60;13.20;;;;;23.28;61.44;99472.09;5088219;28;8843;-75
2022/07/07 02:00:15;;;;;;;;;13.60;13.60;;;;;23.28;61.61;99474.78;5122080;27;8954;-74
2022/07/07 02:02:44;;;;;;;;;11.40;11.40;;;;;23.28;61.51;99466.78;5070953;28;8871;-74
2022/07/07 02:05:13;;;;;;;;;12.40;12.40;;;;;23.28;61.44;99474.78;5089287;28;8851;-74
2022/07/07 02:07:41;;;;;;;;;12.40;12.40;;;;;23.26;61.35;99468.69;5088179;28;8845;-74
2022/07/07 02:10:10;;;;;;;;;12.60;12.40;;;;;23.26;61.25;99473.16;5089280;28;8851;-74
2022/07/07 02:12:38;;;;;;;;;13.00;12.80;;;;;23.26;61.54;99479.31;5089356;28;8931;-74
2022/07/07 02:15:09;;;;;;;;;13.00;11.80;;;;;23.26;61.54;99483.78;5053827;28;8863;-74
2022/07/07 02:17:38;;;;;;;;;11.60;11.60;;;;;23.22;61.69;99488.41;5088985;28;8848;-75
2022/07/07 02:20:07;;;;;;;;;14.40;14.40;;;;;23.22;61.71;99484.91;5087799;28;8827;-74
2022/07/07 02:22:36;;;;;;;;;17.60;14.80;;;;;23.20;61.88;99490.31;5089064;28;8966;-74
2022/07/07 02:25:05;;;;;;;;;14.00;12.80;;;;;23.18;62.20;99486.00;5088671;28;8843;-76
2022/07/07 02:27:34;;;;;;;;;14.80;13.00;;;;;23.14;62.06;99499.47;5088862;28;8893;-75
2022/07/07 02:30:02;;;;;;;;;10.00;10.00;;;;;22.99;62.12;99502.91;5088712;28;8906;-74
2022/07/07 02:32:33;;;;;;;;;15.60;12.80;;;;;22.50;64.42;99505.44;5070132;28;8885;-74
2022/07/07 02:35:01;;;;;;;;;17.20;16.00;;;;;22.39;64.82;99503.31;5088916;28;8866;-75
2022/07/07 02:37:30;;;;;;;;;14.00;14.00;;;;;22.30;65.14;99507.28;5087486;28;8959;-74
2022/07/07 02:39:58;;;;;;;;;15.00;14.40;;;;;22.22;65.52;99498.78;5088697;28;8847;-75
2022/07/07 02:42:27;;;;;;;;;14.40;14.00;;;;;22.24;65.53;99502.22;5087762;28;8862;-75
2022/07/07 02:44:56;;;;;;;;;14.60;14.60;;;;;22.29;65.54;99505.56;5088862;28;9088;-74
2022/07/07 02:47:25;;;;;;;;;17.80;17.20;;;;;22.34;65.67;99500.91;5088922;28;8848;-74
2022/07/07 02:49:55;;;;;;;;;19.20;18.40;;;;;22.39;65.91;99500.66;5086769;28;8920;-74
2022/07/07 02:52:23;;;;;;;;;19.80;19.80;;;;;22.42;66.29;99518.22;5088764;28;8847;-74
2022/07/07 02:54:52;;;;;;;;;17.80;17.80;;;;;22.45;66.30;99510.13;5069862;28;9036;-73
2022/07/07 02:57:21;;;;;;;;;16.80;16.60;;;;;22.44;66.42;99514.56;5088384;28;8859;-74
2022/07/07 02:59:49;;;;;;;;;18.40;17.00;;;;;22.44;66.54;99513.69;5088637;28;8932;-74
2022/07/07 03:02:18;;;;;;;;;21.40;21.40;;;;;22.44;66.69;99517.22;5102969;28;8844;-74
2022/07/07 03:04:46;;;;;;;;;45.50;36.00;;;;;22.41;66.69;99516.53;5087199;28;8874;-74
2022/07/07 03:07:19;;;;;;;;;18.80;18.80;;;;;22.29;67.99;99520.66;5088116;28;8881;-74
2022/07/07 03:09:48;;;;;;;;;23.40;23.40;;;;;22.24;68.42;99514.66;5087028;28;8852;-74
2022/07/07 03:12:16;;;;;;;;;20.00;20.00;;;;;22.18;68.51;99515.81;5069395;28;8872;-75
2022/07/07 03:14:45;;;;;;;;;22.20;21.20;;;;;22.12;69.20;99511.66;5053554;28;8840;-74
2022/07/07 03:17:14;;;;;;;;;24.20;22.40;;;;;22.16;69.08;99515.91;5088322;28;8842;-74
2022/07/07 03:19:42;;;;;;;;;22.60;21.40;;;;;22.22;69.04;99519.19;5070371;28;8863;-74
2022/07/07 03:22:11;;;;;;;;;24.40;21.40;;;;;22.18;69.28;99516.69;5087172;28;8856;-75
2022/07/07 03:24:41;;;;;;;;;24.00;22.20;;;;;22.23;69.04;99515.59;5088381;28;8947;-75
2022/07/07 03:27:10;;;;;;;;;23.20;22.40;;;;;22.27;68.56;99520.72;5088130;28;8953;-74
2022/07/07 03:29:39;;;;;;;;;23.40;22.20;;;;;22.21;68.42;99518.31;5088939;28;8864;-74
2022/07/07 03:32:09;;;;;;;;;25.00;25.00;;;;;22.13;68.68;99526.66;5091886;28;8840;-75
2022/07/07 03:34:38;;;;;;;;;22.00;22.00;;;;;22.10;68.81;99520.66;5091980;28;8935;-74
2022/07/07 03:37:06;;;;;;;;;35.75;30.25;;;;;22.12;68.70;99521.44;5092072;28;8893;-74
2022/07/07 03:39:36;;;;;;;;;23.00;21.00;;;;;22.17;68.47;99525.59;5092112;28;8827;-76
2022/07/07 03:42:07;;;;;;;;;21.00;20.80;;;;;22.12;68.62;99521.44;5090554;28;8977;-74
2022/07/07 03:44:36;;;;;;;;;19.80;17.60;;;;;22.09;68.59;99516.28;5090921;28;8847;-74
2022/07/07 03:47:06;;;;;;;;;19.60;19.60;;;;;22.02;68.68;99513.03;5090641;28;9591;-76
2022/07/07 03:49:34;;;;;;;;;20.00;18.60;;;;;22.08;68.70;99514.53;5092334;28;8902;-75
2022/07/07 03:52:03;;;;;;;;;22.40;19.60;;;;;22.19;67.91;99513.09;5092396;28;8881;-75
2022/07/07 03:54:32;;;;;;;;;21.20;21.00;;;;;22.32;67.69;99525.78;5090655;28;8932;-74
2022/07/07 03:57:01;;;;;;;;;24.40;24.40;;;;;22.44;67.11;99514.56;5091702;28;8874;-75
2022/07/07 03:59:31;;;;;;;;;18.80;18.80;;;;;22.50;66.47;99519.56;5091580;28;8874;-75
2022/07/07 04:01:59;;;;;;;;;21.00;20.60;;;;;22.56;66.04;99513.09;5091519;28;8835;-74
2022/07/07 04:04:28;;;;;;;;;20.00;20.00;;;;;22.68;65.71;99508.94;5091476;28;8839;-74
2022/07/07 04:06:57;;;;;;;;;38.00;33.75;;;;;22.79;65.16;99517.22;5091521;28;8843;-76
2022/07/07 04:09:26;;;;;;;;;50.25;41.25;;;;;22.90;64.98;99520.19;5091045;28;8945;-74
2022/07/07 04:11:54;;;;;;;;;58.25;46.25;;;;;23.01;64.53;99518.78;5091109;28;8844;-74
2022/07/07 04:14:23;;;;;;;;;21.40;20.80;;;;;23.07;63.92;99510.50;5089535;28;8844;-76
2022/07/07 04:16:53;;;;;;;;;19.80;19.80;;;;;23.03;64.10;99515.13;5091868;28;8854;-76
2022/07/07 04:19:22;;;;;;;;;20.40;19.60;;;;;23.11;63.90;99510.25;5091675;28;8843;-76
2022/07/07 04:21:50;;;;;;;;;20.60;20.60;;;;;23.22;63.70;99509.69;5091739;28;8835;-74
2022/07/07 04:24:19;;;;;;;;;20.80;20.20;;;;;23.32;63.47;99510.06;5091425;28;8878;-75
2022/07/07 04:26:48;;;;;;;;;19.60;19.60;;;;;23.44;63.18;99511.19;5091080;28;8855;-74
2022/07/07 04:29:17;;;;;;;;;22.60;20.60;;;;;23.52;62.90;99509.84;5089482;28;8948;-75
2022/07/07 04:31:55;;;;;;;;;24.80;24.20;;;;;23.44;62.25;99514.75;5089349;28;8858;-73
2022/07/07 04:34:24;;;;;;;;;20.80;20.60;;;;;23.47;62.41;99511.03;5090083;28;8832;-75
2022/07/07 04:36:53;;;;;;;;;7.20;7.20;;;;;23.28;62.44;99517.34;5090174;28;8860;-75
2022/07/07 04:39:22;;;;;;;;;18.20;18.20;;;;;23.38;62.63;99514.19;5071985;28;8855;-76
2022/07/07 04:41:51;;;;;;;;;19.40;19.00;;;;;23.34;62.55;99525.00;5089885;28;8931;-75
2022/07/07 04:44:20;;;;;;;;;21.20;20.20;;;;;23.35;62.13;99515.22;5090871;28;8936;-75
2022/07/07 04:46:48;;;;;;;;;25.80;23.60;;;;;23.22;62.34;99520.34;5090678;28;8863;-74
2022/07/07 04:49:19;;;;;;;;;17.60;17.60;;;;;23.25;62.72;99514.88;5072086;28;8855;-74
2022/07/07 04:51:48;;;;;;;;;22.00;20.00;;;;;23.14;62.79;99517.25;5071187;28;9025;-74
2022/07/07 04:54:17;;;;;;;;;19.80;19.40;;;;;22.95;61.77;99517.31;5090203;28;8839;-74
2022/07/07 04:56:45;;;;;;;;;29.75;29.50;;;;;22.68;62.05;99527.56;5090306;28;8835;-75
2022/07/07 04:59:14;;;;;;;;;20.40;19.80;;;;;22.65;63.16;99530.38;5090147;28;8978;-73
2022/07/07 05:01:42;;;;;;;;;24.20;19.60;;;;;22.63;63.71;99530.47;5089917;28;8881;-76
2022/07/07 05:04:11;;;;;;;;;22.60;22.60;;;;;22.66;61.82;99524.97;5090043;28;8844;-74
2022/07/07 05:06:41;;;;;;;;;20.60;20.60;;;;;22.63;62.17;99526.91;5089970;28;8836;-76
2022/07/07 05:09:10;;;;;;;;;23.80;22.20;;;;;22.44;62.16;99526.97;5087518;28;8924;-76
2022/07/07 05:11:39;;;;;;;;;18.00;17.80;;;;;22.15;59.93;99523.94;5070693;28;9079;-77
2022/07/07 05:14:07;;;;;;;;;20.20;19.20;;;;;22.26;59.67;99534.94;5089724;28;9680;-75
2022/07/07 05:16:35;;;;;;;;;20.80;20.60;;;;;21.70;60.72;99538.47;5089723;28;8844;-75
2022/07/07 05:19:05;;;;;;;;;22.40;22.40;;;;;22.00;59.15;99526.41;5088532;28;8863;-75
2022/07/07 05:21:33;;;;;;;;;22.20;22.20;;;;;21.64;59.88;99529.00;5089860;28;8862;-74
2022/07/07 05:24:03;;;;;;;;;21.60;20.00;;;;;21.75;59.45;99526.69;5073704;28;8852;-74
2022/07/07 05:26:32;;;;;;;;;19.60;19.20;;;;;21.77;58.55;99534.59;5073284;28;8855;-76
2022/07/07 05:29:01;;;;;;;;;22.00;20.40;;;;;21.74;57.18;99527.66;5090110;28;9562;-74
2022/07/07 05:31:31;;;;;;;;;19.60;18.40;;;;;21.47;57.56;99519.16;5071039;28;8860;-74
2022/07/07 05:34:00;;;;;;;;;20.00;20.00;;;;;21.54;56.92;99520.59;5089602;28;8828;-77
2022/07/07 05:36:29;;;;;;;;;21.20;20.20;;;;;21.57;56.81;99514.31;5089727;28;8976;-77
2022/07/07 05:38:57;;;;;;;;;23.00;23.00;;;;;21.39;57.05;99511.50;5054593;28;8867;-78
2022/07/07 05:41:28;;;;;;;;;24.00;23.80;;;;;21.58;55.97;99519.53;5070948;28;8863;-76
2022/07/07 05:43:56;;;;;;;;;14.60;14.60;;;;;21.83;53.83;99515.72;5089708;28;8876;-76
2022/07/07 05:46:25;;;;;;;;;20.40;19.40;;;;;22.19;53.45;99514.88;5089505;28;8839;-75
2022/07/07 05:48:53;;;;;;;;;23.00;23.00;;;;;22.21;53.19;99515.66;5088026;28;8872;-75
2022/07/07 05:51:22;;;;;;;;;16.80;16.80;;;;;22.12;52.71;99510.81;5089368;28;8875;-75
2022/07/07 05:53:51;;;;;;;;;20.00;18.40;;;;;22.28;51.89;99513.59;5088832;28;8832;-75
2022/07/07 05:56:20;;;;;;;;;17.80;17.40;;;;;21.85;52.28;99524.47;5069969;28;8840;-75
2022/07/07 05:58:50;;;;;;;;;17.80;17.00;;;;;21.93;51.95;99513.50;5088046;28;8948;-75
2022/07/07 06:01:18;;;;;;;;;18.80;17.60;;;;;22.30;50.77;99517.91;5071207;28;8855;-76
2022/07/07 06:03:47;;;;;;;;;17.00;17.00;;;;;22.62;50.15;99507.47;5087744;28;9664;-76
2022/07/07 06:06:15;;;;;;;;;16.00;15.20;;;;;22.75;49.44;99515.66;5089080;28;9574;-76
2022/07/07 06:08:44;;;;;;;;;20.20;19.40;;;;;22.45;50.58;99516.28;5088655;28;9601;-76
2022/07/07 06:11:13;;;;;;;;;19.40;19.00;;;;;21.80;51.96;99527.34;5087650;28;8835;-74
2022/07/07 06:13:41;;;;;;;;;19.60;18.40;;;;;21.99;52.15;99531.78;5070610;28;9041;-75
2022/07/07 06:16:12;;;;;;;;;17.80;17.80;;;;;22.33;51.00;99530.19;5087806;28;8882;-77
2022/07/07 06:18:40;;;;;;;;;19.00;19.00;;;;;22.20;51.63;99532.53;5088993;28;8848;-74
2022/07/07 06:21:09;;;;;;;;;19.80;19.80;;;;;22.09;52.31;99532.22;5089075;28;8878;-72
2022/07/07 06:23:38;;;;;;;;;19.80;18.20;;;;;21.83;52.08;99530.78;5087667;28;8851;-74
2022/07/07 06:26:06;;;;;;;;;19.60;18.80;;;;;21.93;52.06;99527.63;5089481;28;8905;-73
2022/07/07 06:28:35;;;;;;;;;17.80;17.80;;;;;21.86;52.67;99526.19;5087356;28;8831;-73
2022/07/07 06:31:03;;;;;;;;;14.00;14.00;;;;;22.26;52.03;99537.59;5086957;28;9581;-75
2022/07/07 06:33:33;;;;;;;;;23.00;22.00;;;;;22.14;52.39;99536.38;5088455;28;8886;-75
2022/07/07 06:36:02;;;;;;;;;21.00;19.20;;;;;22.03;52.63;99528.06;5069419;28;8910;-74
2022/07/07 06:38:30;;;;;;;;;21.00;20.00;;;;;22.24;52.59;99533.25;5088775;28;8840;-71
2022/07/07 06:40:59;;;;;;;;;24.80;23.20;;;;;22.36;51.88;99530.91;5102725;28;8866;-75
2022/07/07 06:43:28;;;;;;;;;18.20;18.20;;;;;22.73;51.68;99536.16;5087202;28;8867;-72
2022/07/07 06:45:57;;;;;;;;;15.60;15.60;;;;;23.21;50.83;99539.91;5088855;28;9748;-72
2022/07/07 06:48:26;;;;;;;;;15.20;15.20;;;;;23.64;49.60;99528.75;5087277;28;8847;-75
2022/07/07 06:50:56;;;;;;;;;18.40;16.80;;;;;23.95;48.52;99530.63;5088110;28;8855;-73
2022/07/07 06:53:25;;;;;;;;;20.60;20.60;;;;;23.96;47.75;99535.00;5088432;28;8952;-73
2022/07/07 06:55:54;;;;;;;;;22.60;19.40;;;;;23.00;50.07;99535.69;5087912;28;8857;-73
2022/07/07 06:58:22;;;;;;;;;18.20;16.60;;;;;23.45;49.37;99531.56;5088631;28;8859;-72
2022/07/07 07:00:51;;;;;;;;;20.40;18.80;;;;;23.63;48.45;99525.25;5088209;28;9708;-73
2022/07/07 07:03:20;;;;;;;;;21.20;20.40;;;;;23.65;48.44;99522.50;5088419;28;8844;-77
2022/07/07 07:05:48;;;;;;;;;19.60;18.40;;;;;23.48;48.70;99516.28;5090613;28;8864;-73
2022/07/07 07:08:26;;;;;;;;;20.60;20.00;;;;;22.93;50.37;99519.16;5092540;28;9681;-75
2022/07/07 07:10:54;;;;;;;;;19.60;18.00;;;;;23.35;48.52;99525.88;5092316;28;8936;-75
2022/07/07 07:13:23;;;;;;;;;17.00;17.00;;;;;23.61;47.59;99516.47;5092209;28;8874;-74
2022/07/07 07:15:52;;;;;;;;;17.40;16.80;;;;;23.89;46.73;99522.94;5056812;28;8877;-71
2022/07/07 07:18:20;;;;;;;;;19.40;18.60;;;;;24.11;46.33;99515.47;5089851;28;8940;-73
2022/07/07 07:20:49;;;;;;;;;16.40;16.40;;;;;24.30;46.43;99515.25;5092170;28;8948;-73
2022/07/07 07:23:18;;;;;;;;;18.40;15.40;;;;;24.49;45.87;99516.88;5124341;27;8932;-74
2022/07/07 07:25:48;;;;;;;;;18.00;18.00;;;;;24.82;44.72;99511.38;5091705;28;8889;-72
2022/07/07 07:28:16;;;;;;;;;18.20;18.20;;;;;24.79;44.23;99514.22;5091449;28;8869;-75
2022/07/07 07:30:45;;;;;;;;;14.80;14.80;;;;;24.70;44.87;99512.94;5091588;28;8855;-74
2022/07/07 07:33:13;;;;;;;;;19.20;17.60;;;;;24.34;44.78;99513.28;5091920;28;8855;-74
2022/07/07 07:35:42;;;;;;;;;19.60;18.00;;;;;23.75;46.81;99513.91;5091607;28;8848;-75
2022/07/07 07:38:11;;;;;;;;;19.80;19.20;;;;;23.32;48.61;99510.06;5091845;28;8990;-72
2022/07/07 07:40:40;;;;;;;;;20.20;20.20;;;;;23.53;48.79;99510.69;5091460;28;8840;-73
2022/07/07 07:43:10;;;;;;;;;16.40;16.40;;;;;23.60;47.12;99509.41;5090154;28;8887;-72
2022/07/07 07:45:39;;;;;;;;;20.20;20.20;;;;;23.63;47.55;99511.03;5091604;28;8840;-71
2022/07/07 07:48:07;;;;;;;;;17.20;17.20;;;;;23.41;49.00;99516.69;5091233;28;8905;-75
2022/07/07 07:50:36;;;;;;;;;14.80;14.40;;;;;23.08;46.98;99523.75;5072492;28;8877;-76
2022/07/07 07:53:05;;;;;;;;;18.40;17.00;;;;;22.92;48.84;99515.66;5091437;28;8842;-76
2022/07/07 07:55:35;;;;;;;;;17.20;17.20;;;;;23.09;48.76;99519.28;5091517;28;8956;-73
2022/07/07 07:58:04;;;;;;;;;19.80;19.80;;;;;23.21;48.94;99517.75;5090128;28;8843;-72
2022/07/07 08:00:34;;;;;;;;;22.40;21.00;;;;;23.26;48.89;99511.25;5090040;28;8844;-73
2022/07/07 08:03:06;;;;;;;;;21.40;20.40;;;;;23.30;47.60;99519.94;5091381;28;8863;-72
2022/07/07 08:05:35;;;;;;;;;18.60;18.40;;;;;23.70;47.60;99509.78;5091059;28;8948;-72
2022/07/07 08:08:04;;;;;;;;;19.60;19.60;;;;;24.05;47.18;99513.16;5089898;28;8882;-71
2022/07/07 08:10:33;;;;;;;;;19.80;19.80;;;;;23.99;46.00;99518.84;5071931;28;8902;-73
2022/07/07 08:13:02;;;;;;;;;17.40;16.40;;;;;24.08;45.93;99514.78;5091261;28;8851;-71
2022/07/07 08:15:30;;;;;;;;;19.60;17.40;;;;;24.15;44.85;99520.63;5091244;28;8853;-74
2022/07/07 08:18:00;;;;;;;;;15.20;15.20;;;;;23.86;45.21;99521.31;5091446;28;8962;-72
2022/07/07 08:20:29;;;;;;;;;15.60;15.60;;;;;23.93;44.28;99525.38;5090630;28;8843;-73
2022/07/07 08:22:57;;;;;;;;;14.80;14.80;;;;;23.98;44.32;99524.25;5089586;28;9980;-73
2022/07/07 08:25:26;;;;;;;;;20.80;18.80;;;;;23.95;44.13;99519.97;5090636;28;8954;-73
2022/07/07 08:27:55;;;;;;;;;12.00;11.60;;;;;24.28;43.45;99516.31;5090761;28;8832;-73
2022/07/07 08:30:23;;;;;;;;;17.00;15.80;;;;;24.60;42.34;99513.63;5090268;28;8886;-73
2022/07/07 08:32:52;;;;;;;;;16.60;16.60;;;;;24.45;42.89;99518.84;5090925;28;8946;-74
2022/07/07 08:35:22;;;;;;;;;17.20;15.80;;;;;24.81;42.54;99516.81;5039013;28;8832;-74
2022/07/07 08:37:51;;;;;;;;;15.20;15.20;;;;;25.25;41.76;99511.44;5123838;27;8875;-74
2022/07/07 08:40:19;;;;;;;;;15.80;15.00;;;;;25.56;40.42;99511.34;5090847;28;8866;-72
2022/07/07 08:42:50;;;;;;;;;14.20;13.80;;;;;25.95;40.79;99512.44;5090479;28;8920;-72
2022/07/07 08:45:19;;;;;;;;;18.00;16.80;;;;;25.34;39.17;99522.53;5090331;28;8928;-71
2022/07/07 08:47:48;;;;;;;;;16.60;15.20;;;;;25.46;39.59;99513.72;5090228;28;8839;-71
2022/07/07 08:50:17;;;;;;;;;16.60;15.60;;;;;25.36;40.30;99521.47;5122763;27;8852;-74
2022/07/07 08:52:52;;;;;;;;;15.80;15.80;;;;;25.26;40.07;99520.34;5089397;28;8847;-75
2022/07/07 08:55:23;;;;;;;;;15.60;14.80;;;;;25.11;39.58;99516.75;5089821;28;8831;-73
2022/07/07 08:57:52;;;;;;;;;13.40;13.40;;;;;24.98;37.88;99526.47;5090175;28;8834;-75
2022/07/07 09:00:22;;;;;;;;;15.00;15.00;;;;;24.64;38.28;99533.81;5089609;28;8952;-75
2022/07/07 09:02:56;;;;;;;;;13.80;12.80;;;;;24.64;39.11;99529.31;5072211;28;8866;-71
2022/07/07 09:05:26;;;;;;;;;14.00;14.00;;;;;24.86;39.17;99528.91;5088672;28;8836;-74
2022/07/07 09:07:56;;;;;;;;;16.00;15.20;;;;;24.82;38.36;99527.38;5090464;28;8840;-74
2022/07/07 09:10:29;;;;;;;;;15.00;15.00;;;;;24.99;38.21;99514.81;5090183;28;8976;-74
2022/07/07 09:12:59;;;;;;;;;16.60;14.00;;;;;25.32;37.91;99524.44;5090914;28;8843;-75
2022/07/07 09:15:38;;;;;;;;;15.60;15.20;;;;;24.93;38.04;99534.72;5088762;28;8867;-75
2022/07/07 09:18:07;;;;;;;;;13.00;13.00;;;;;24.87;37.56;99532.44;5070457;28;8850;-75
2022/07/07 09:20:36;;;;;;;;;14.40;13.00;;;;;24.93;38.10;99531.22;5054310;28;8841;-74
2022/07/07 09:23:06;;;;;;;;;14.80;14.80;;;;;25.39;38.01;99515.94;5087521;28;8845;-75
2022/07/07 09:25:35;;;;;;;;;13.80;13.20;;;;;24.96;36.89;99526.56;5087671;28;8944;-73
2022/07/07 09:28:05;;;;;;;;;11.60;11.00;;;;;25.24;36.75;99527.56;5086514;28;8838;-74
2022/07/07 09:30:37;;;;;;;;;12.00;12.00;;;;;25.47;36.82;99518.13;5070571;28;8834;-76
2022/07/07 09:33:07;;;;;;;;;11.00;11.00;;;;;25.94;36.90;99521.44;5087236;28;8958;-75
2022/07/07 09:38:25;;;;;;;;;11.40;10.20;;;;;25.83;34.01;99527.44;5087120;28;8857;-74
2022/07/07 09:40:59;;;;;;;;;14.60;14.40;;;;;25.99;34.26;99519.31;5086792;28;8834;-73
2022/07/07 09:43:29;;;;;;;;;10.20;10.20;;;;;25.99;32.90;99530.00;5086776;28;8849;-74
2022/07/07 09:46:14;;;;;;;;;11.60;11.00;;;;;25.76;32.92;99526.09;5086536;28;8945;-73
2022/07/07 09:48:44;;;;;;;;;12.40;12.40;;;;;25.80;33.90;99525.84;5086684;28;8849;-72
2022/07/07 09:51:22;;;;;;;;;10.60;10.20;;;;;25.92;33.46;99526.88;5086468;28;9369;-76
2022/07/07 09:53:57;;;;;;;;;11.00;11.00;;;;;25.61;34.38;99514.56;5069722;28;8930;-75
2022/07/07 09:56:28;;;;;;;;;11.40;11.20;;;;;25.97;33.93;99510.53;5088659;28;8897;-72
2022/07/07 09:58:58;;;;;;;;;15.00;14.80;;;;;25.99;34.30;99508.63;5122055;27;8906;-73
2022/07/07 10:01:29;;;;;;;;;11.40;11.40;;;;;26.36;33.47;99508.88;5089442;28;8858;-75
2022/07/07 10:03:59;;;;;;;;;12.60;12.60;;;;;26.12;34.19;99514.03;5088159;28;8986;-75
2022/07/07 10:06:31;;;;;;;;;10.20;10.20;;;;;25.79;34.18;99507.22;5071396;28;8890;-73
2022/07/07 10:09:04;;;;;;;;;15.00;13.60;;;;;25.80;35.48;99503.56;5088875;28;8946;-75
2022/07/07 10:11:38;;;;;;;;;15.00;13.60;;;;;25.96;36.36;99500.81;5070894;28;8861;-72
2022/07/07 10:14:11;;;;;;;;;11.00;11.00;;;;;26.22;35.89;99501.78;5054132;28;8882;-71
2022/07/07 10:16:40;;;;;;;;;15.00;14.00;;;;;26.14;36.40;99504.94;5088527;28;8844;-74
2022/07/07 10:19:11;;;;;;;;;15.40;15.40;;;;;25.95;36.09;99499.09;5088710;28;8851;-75
2022/07/07 10:21:45;;;;;;;;;16.60;16.60;;;;;26.00;36.66;99505.84;5088521;28;8986;-75
2022/07/07 10:24:17;;;;;;;;;16.40;16.40;;;;;26.22;37.02;99499.97;5087800;28;8885;-74
2022/07/07 10:26:50;;;;;;;;;16.80;15.00;;;;;26.53;36.79;99492.56;5087126;28;8847;-75
2022/07/07 10:29:42;;;;;;;;;18.80;18.00;;;;;26.94;36.02;99493.41;5088261;28;9988;-76
2022/07/07 10:32:13;;;;;;;;;15.60;15.60;;;;;27.09;36.24;99494.13;5088875;28;8920;-75
2022/07/07 10:34:48;;;;;;;;;14.80;14.60;;;;;27.33;35.04;99491.59;5087209;28;8836;-74
2022/07/07 10:37:18;;;;;;;;;12.80;12.80;;;;;27.59;34.79;99484.38;5087372;28;8840;-75
2022/07/07 10:39:49;;;;;;;;;12.40;12.40;;;;;27.83;34.67;99483.53;5072419;28;8986;-76
2022/07/07 10:42:44;;;;;;;;;12.00;12.00;;;;;27.98;34.49;99480.63;5074878;28;8851;-75
2022/07/07 10:45:14;;;;;;;;;14.40;13.40;;;;;28.20;34.43;99487.06;5016867;28;9694;-75
2022/07/07 10:47:43;;;;;;;;;12.40;12.40;;;;;28.41;33.08;99483.75;5017509;28;8904;-76
2022/07/07 10:50:26;;;;;;;;;12.00;11.20;;;;;27.44;32.27;99489.00;5032859;28;8842;-71
2022/07/07 10:52:56;;;;;;;;;9.40;9.40;;;;;27.64;32.59;99489.38;5049801;28;8927;-72
2022/07/07 10:55:58;;;;;;;;;10.40;10.00;;;;;27.97;31.17;99478.91;5049793;28;8862;-72
2022/07/07 10:58:55;;;;;;;;;10.00;10.00;;;;;27.76;30.79;99475.09;5049418;28;8872;-74
2022/07/07 11:01:26;;;;;;;;;9.60;9.60;;;;;27.66;30.49;99480.28;5000339;28;8834;-74
2022/07/07 11:03:55;;;;;;;;;7.60;7.60;;;;;28.08;29.58;99469.22;5032771;28;8858;-75
2022/07/07 11:06:24;;;;;;;;;7.80;7.80;;;;;28.39;28.54;99465.94;5033186;28;8849;-72
2022/07/07 11:09:01;;;;;;;;;7.40;7.40;;;;;28.60;26.99;99473.34;5032801;28;8861;-75
2022/07/07 11:11:31;;;;;;;;;5.00;5.00;;;;;28.97;27.06;99457.91;5049196;28;8967;-74
2022/07/07 11:14:06;;;;;;;;;7.00;7.00;;;;;29.10;25.93;99462.34;5000625;28;8946;-74
2022/07/07 11:16:35;;;;;;;;;6.80;6.80;;;;;29.29;25.89;99448.34;5049497;28;8939;-74
2022/07/07 11:19:05;;;;;;;;;8.00;7.80;;;;;28.93;25.23;99461.81;5033126;28;9027;-76
2022/07/07 11:21:41;;;;;;;;;7.80;7.00;;;;;29.05;26.35;99456.47;5040008;28;8932;-76
2022/07/07 11:24:22;;;;;;;;;7.20;7.20;;;;;29.37;26.07;99447.72;5092261;28;8847;-74
2022/07/07 11:27:00;;;;;;;;;10.20;10.20;;;;;29.67;26.04;99449.75;5073347;28;9722;-75
2022/07/07 11:29:30;;;;;;;;;6.00;5.80;;;;;29.68;25.32;99438.00;5074220;28;9601;-76
2022/07/07 11:32:05;;;;;;;;;10.40;10.20;;;;;30.09;25.65;99429.22;5072528;28;8895;-74
2022/07/07 11:34:41;;;;;;;;;9.60;8.00;;;;;30.47;24.92;99429.69;5073685;28;8959;-75
2022/07/07 11:37:22;;;;;;;;;8.00;8.00;;;;;30.49;24.12;99427.72;5092127;28;8844;-76
2022/07/07 11:39:51;;;;;;;;;3.00;3.00;;;;;30.26;24.28;99432.34;5072887;28;8847;-75
2022/07/07 11:42:21;;;;;;;;;11.20;10.40;;;;;30.08;24.27;99430.22;5091564;28;8877;-74